createdAt,value
2023-03-19T00:01:46.760Z,0.70
2023-03-19T00:04:13.496Z,0.80
2023-03-19T00:06:39.874Z,0.90
2023-03-19T00:09:06.643Z,0.80
2023-03-19T00:11:34.459Z,0.90
2023-03-19T00:14:00.935Z,1.42
2023-03-19T00:16:27.599Z,1.23
2023-03-19T00:18:54.920Z,1.00
2023-03-19T00:21:21.267Z,1.15
2023-03-19T00:23:47.708Z,1.30
2023-03-19T00:26:14.155Z,1.00
2023-03-19T00:28:40.615Z,1.10
2023-03-19T00:31:12.253Z,1.00
2023-03-19T00:33:39.026Z,1.30
2023-03-19T00:36:06.860Z,0.65
2023-03-19T00:38:34.251Z,0.50
2023-03-19T00:41:00.652Z,0.50
2023-03-19T00:43:27.339Z,0.30
2023-03-19T00:45:53.857Z,0.30
2023-03-19T00:48:21.469Z,0.40
2023-03-19T00:50:48.257Z,0.20
2023-03-19T00:53:14.670Z,0.20
2023-03-19T00:55:41.055Z,0.45
2023-03-19T00:58:07.535Z,0.45
2023-03-19T01:02:59.979Z,0.88
2023-03-19T01:05:26.328Z,1.13
2023-03-19T01:07:52.851Z,1.40
2023-03-19T01:10:20.107Z,1.42
2023-03-19T01:12:46.550Z,0.90
2023-03-19T01:15:13.000Z,1.00
2023-03-19T01:17:39.472Z,1.15
2023-03-19T01:20:09.242Z,1.30
2023-03-19T01:22:37.008Z,1.40
2023-03-19T01:25:04.212Z,1.10
2023-03-19T01:27:30.883Z,1.00
2023-03-19T01:29:57.166Z,0.70
2023-03-19T01:32:23.618Z,0.60
2023-03-19T01:34:50.196Z,0.65
2023-03-19T01:37:16.539Z,0.50
2023-03-19T01:39:42.853Z,0.60
2023-03-19T01:42:09.245Z,0.73
2023-03-19T01:44:37.003Z,1.10
2023-03-19T01:47:07.334Z,1.17
2023-03-19T01:49:34.338Z,0.80
2023-03-19T01:52:02.134Z,0.90
2023-03-19T01:54:29.963Z,1.60
2023-03-19T01:56:59.625Z,1.10
2023-03-19T01:59:27.638Z,1.05
2023-03-19T02:01:57.287Z,1.00
2023-03-19T02:04:25.015Z,0.70
2023-03-19T02:06:51.834Z,0.98
2023-03-19T02:09:18.893Z,0.60
2023-03-19T02:11:45.483Z,0.55
2023-03-19T02:14:13.408Z,0.50
2023-03-19T02:16:39.724Z,0.50
2023-03-19T02:19:08.779Z,0.55
2023-03-19T02:21:35.294Z,1.05
2023-03-19T02:24:07.846Z,0.80
2023-03-19T02:26:34.860Z,0.98
2023-03-19T02:29:01.446Z,0.70
2023-03-19T02:31:28.072Z,0.50
2023-03-19T02:33:57.656Z,0.60
2023-03-19T02:36:24.071Z,0.80
2023-03-19T02:38:52.137Z,0.80
2023-03-19T02:41:19.519Z,1.00
2023-03-19T02:43:46.650Z,1.25
2023-03-19T02:46:13.556Z,1.77
2023-03-19T02:48:41.325Z,1.80
2023-03-19T02:51:08.601Z,1.98
2023-03-19T02:53:35.056Z,1.40
2023-03-19T02:56:01.624Z,1.40
2023-03-19T02:58:28.149Z,0.93
2023-03-19T03:00:54.528Z,0.80
2023-03-19T03:03:21.537Z,0.77
2023-03-19T03:05:47.999Z,0.60
2023-03-19T03:08:14.356Z,0.70
2023-03-19T03:10:40.896Z,0.77
2023-03-19T03:13:07.293Z,0.70
2023-03-19T03:15:33.758Z,0.73
2023-03-19T03:18:00.824Z,0.80
2023-03-19T03:20:28.273Z,0.80
2023-03-19T03:22:54.747Z,0.77
2023-03-19T03:25:21.220Z,1.00
2023-03-19T03:27:47.655Z,0.80
2023-03-19T03:30:15.812Z,1.27
2023-03-19T03:32:42.549Z,1.00
2023-03-19T03:35:09.270Z,1.30
2023-03-19T03:37:36.683Z,1.83
2023-03-19T03:40:08.077Z,1.27
2023-03-19T03:42:36.781Z,1.08
2023-03-19T03:45:03.614Z,1.20
2023-03-19T03:47:29.978Z,0.80
2023-03-19T03:49:56.702Z,0.80
2023-03-19T03:52:23.888Z,0.85
2023-03-19T03:54:50.233Z,0.60
2023-03-19T03:57:16.804Z,0.50
2023-03-19T03:59:43.549Z,0.60
2023-03-19T04:02:09.989Z,0.47
2023-03-19T04:04:36.391Z,0.40
2023-03-19T04:07:02.750Z,0.40
2023-03-19T04:09:29.130Z,0.40
2023-03-19T04:11:55.519Z,0.40
2023-03-19T04:14:22.295Z,0.32
2023-03-19T04:16:48.994Z,0.60
2023-03-19T04:19:15.561Z,0.60
2023-03-19T04:21:41.985Z,1.08
2023-03-19T04:24:10.527Z,3.50
2023-03-19T04:26:37.569Z,4.07
2023-03-19T04:29:04.088Z,2.78
2023-03-19T04:31:30.631Z,2.08
2023-03-19T04:33:57.544Z,1.52
2023-03-19T04:36:24.182Z,1.27
2023-03-19T04:38:50.561Z,1.10
2023-03-19T04:41:16.913Z,0.95
2023-03-19T04:43:43.288Z,1.05
2023-03-19T04:46:09.650Z,1.40
2023-03-19T04:48:36.370Z,1.40
2023-03-19T04:51:04.000Z,1.08
2023-03-19T04:53:30.497Z,1.00
2023-03-19T04:55:57.116Z,0.90
2023-03-19T04:58:23.562Z,0.70
2023-03-19T05:00:49.870Z,1.50
2023-03-19T05:03:16.664Z,1.90
2023-03-19T05:05:43.125Z,2.50
2023-03-19T05:08:09.994Z,2.05
2023-03-19T05:10:37.407Z,1.65
2023-03-19T05:13:03.886Z,1.33
2023-03-19T05:15:30.296Z,1.25
2023-03-19T05:17:56.792Z,1.88
2023-03-19T05:20:23.812Z,1.30
2023-03-19T05:22:52.033Z,1.33
2023-03-19T05:25:19.123Z,1.60
2023-03-19T05:27:45.818Z,2.20
2023-03-19T05:30:12.332Z,2.28
2023-03-19T05:32:40.861Z,1.40
2023-03-19T05:35:07.644Z,1.02
2023-03-19T05:37:33.981Z,0.82
2023-03-19T05:40:00.662Z,0.60
2023-03-19T05:42:27.021Z,0.90
2023-03-19T05:44:53.783Z,1.10
2023-03-19T05:47:20.197Z,1.55
2023-03-19T05:49:46.519Z,1.10
2023-03-19T05:52:12.861Z,0.70
2023-03-19T05:54:39.229Z,1.20
2023-03-19T05:57:05.978Z,0.60
2023-03-19T05:59:32.388Z,1.10
2023-03-19T06:01:58.826Z,1.50
2023-03-19T06:04:25.849Z,1.20
2023-03-19T06:06:52.328Z,1.00
2023-03-19T06:09:18.651Z,0.60
2023-03-19T06:11:45.070Z,0.60
2023-03-19T06:14:11.619Z,0.40
2023-03-19T06:16:37.921Z,0.40
2023-03-19T06:19:04.301Z,0.50
2023-03-19T06:21:31.491Z,0.30
2023-03-19T06:23:58.000Z,0.30
2023-03-19T06:26:24.714Z,0.25
2023-03-19T06:28:51.253Z,0.40
2023-03-19T06:31:17.679Z,0.40
2023-03-19T06:33:44.028Z,0.30
2023-03-19T06:36:10.615Z,0.30
2023-03-19T06:38:37.552Z,0.28
2023-03-19T06:41:03.992Z,0.30
2023-03-19T06:43:31.140Z,0.40
2023-03-19T06:45:57.662Z,0.70
2023-03-19T06:48:24.125Z,0.50
2023-03-19T06:50:50.421Z,0.40
2023-03-19T06:53:16.825Z,0.73
2023-03-19T06:55:45.975Z,0.60
2023-03-19T06:58:12.302Z,0.70
2023-03-19T07:00:38.750Z,0.90
2023-03-19T07:03:05.092Z,1.30
2023-03-19T07:05:31.482Z,0.80
2023-03-19T07:07:57.851Z,0.60
2023-03-19T07:10:24.214Z,0.60
2023-03-19T07:12:50.550Z,0.80
2023-03-19T07:15:17.711Z,0.68
2023-03-19T07:17:46.082Z,0.55
2023-03-19T07:20:12.674Z,0.35
2023-03-19T07:22:39.056Z,0.52
2023-03-19T07:25:05.610Z,0.50
2023-03-19T07:27:32.217Z,0.50
2023-03-19T07:29:58.577Z,0.30
2023-03-19T07:32:25.120Z,0.50
2023-03-19T07:34:51.524Z,0.40
2023-03-19T07:37:20.683Z,0.25
2023-03-19T07:39:48.669Z,1.60
2023-03-19T07:42:15.326Z,1.25
2023-03-19T07:44:41.652Z,1.00
2023-03-19T07:47:19.006Z,0.70
2023-03-19T07:49:52.824Z,0.50
2023-03-19T07:52:19.365Z,0.55
2023-03-19T07:54:45.862Z,0.40
2023-03-19T07:57:12.143Z,0.30
2023-03-19T07:59:38.470Z,0.30
2023-03-19T08:02:04.885Z,0.40
2023-03-19T08:04:31.612Z,1.90
2023-03-19T08:06:58.071Z,1.73
2023-03-19T08:09:24.400Z,1.60
2023-03-19T08:11:50.930Z,1.40
2023-03-19T08:14:22.369Z,1.40
2023-03-19T08:16:49.462Z,1.40
2023-03-19T08:19:16.753Z,1.30
2023-03-19T08:21:43.106Z,1.00
2023-03-19T08:24:09.490Z,0.80
2023-03-19T08:26:35.878Z,0.70
2023-03-19T08:29:03.578Z,0.80
2023-03-19T08:31:30.387Z,1.75
2023-03-19T08:34:00.124Z,1.52
2023-03-19T08:36:27.510Z,1.23
2023-03-19T08:38:54.907Z,1.17
2023-03-19T08:41:21.588Z,1.50
2023-03-19T08:43:48.035Z,1.35
2023-03-19T08:46:14.453Z,1.20
2023-03-19T08:48:41.603Z,1.60
2023-03-19T08:51:09.636Z,1.67
2023-03-19T08:53:36.355Z,1.30
2023-03-19T08:56:03.987Z,1.40
2023-03-19T08:58:30.452Z,1.20
2023-03-19T09:01:04.646Z,1.27
2023-03-19T09:03:31.259Z,1.17
2023-03-19T09:05:58.281Z,1.70
2023-03-19T09:08:24.704Z,1.63
2023-03-19T09:10:51.551Z,1.42
2023-03-19T09:13:17.972Z,1.70
2023-03-19T09:15:44.264Z,1.65
2023-03-19T09:18:10.646Z,1.60
2023-03-19T09:20:37.034Z,1.27
2023-03-19T09:23:03.540Z,1.33
2023-03-19T09:25:30.004Z,1.27
2023-03-19T09:27:56.469Z,1.55
2023-03-19T09:30:22.870Z,1.50
2023-03-19T09:32:49.324Z,1.48
2023-03-19T09:35:15.860Z,2.10
2023-03-19T09:37:42.460Z,1.50
2023-03-19T09:40:16.232Z,1.50
2023-03-19T09:42:57.966Z,1.50
2023-03-19T09:45:24.640Z,1.30
2023-03-19T09:47:54.060Z,1.50
2023-03-19T09:50:21.822Z,1.08
2023-03-19T09:52:54.176Z,1.40
2023-03-19T09:55:28.132Z,1.00
2023-03-19T09:57:55.881Z,1.30
2023-03-19T10:00:22.612Z,1.05
2023-03-19T10:02:53.168Z,0.88
2023-03-19T10:05:23.112Z,1.08
2023-03-19T10:07:52.539Z,1.15
2023-03-19T10:10:24.855Z,1.30
2023-03-19T10:12:57.552Z,1.08
2023-03-19T10:15:28.796Z,1.10
2023-03-19T10:18:11.155Z,1.00
2023-03-19T10:20:46.778Z,0.90
2023-03-19T10:23:13.159Z,0.70
2023-03-19T10:25:41.625Z,0.40
2023-03-19T10:28:14.329Z,0.75
2023-03-19T10:30:41.301Z,1.13
2023-03-19T10:33:16.570Z,0.70
2023-03-19T10:35:47.497Z,0.50
2023-03-19T10:38:19.462Z,0.63
2023-03-19T10:40:50.740Z,1.38
2023-03-19T10:43:21.038Z,1.35
2023-03-19T10:45:49.171Z,1.10
2023-03-19T10:48:17.128Z,1.20
2023-03-19T10:50:43.423Z,1.40
2023-03-19T10:53:15.541Z,0.95
2023-03-19T10:55:47.491Z,0.80
2023-03-19T11:00:40.185Z,0.50
2023-03-19T11:03:26.793Z,0.40
2023-03-19T11:06:03.069Z,0.70
2023-03-19T11:08:35.830Z,0.80
2023-03-19T11:11:02.598Z,0.90
2023-03-19T11:13:29.028Z,0.50
2023-03-19T11:15:59.219Z,0.40
2023-03-19T11:18:29.852Z,0.40
2023-03-19T11:21:02.018Z,0.40
2023-03-19T11:23:29.452Z,0.50
2023-03-19T11:25:58.995Z,0.95
2023-03-19T11:28:26.970Z,0.60
2023-03-19T11:31:02.529Z,0.50
2023-03-19T11:33:42.658Z,0.40
2023-03-19T11:36:13.841Z,0.40
2023-03-19T11:38:40.972Z,0.40
2023-03-19T11:41:21.389Z,0.50
2023-03-19T11:43:54.381Z,0.63
2023-03-19T11:46:44.463Z,0.70
2023-03-19T11:49:32.783Z,0.80
2023-03-19T11:52:22.504Z,0.75
2023-03-19T11:54:57.550Z,0.50
2023-03-19T11:57:43.649Z,0.90
2023-03-19T12:00:22.504Z,0.70
2023-03-19T12:02:55.695Z,0.95
2023-03-19T12:05:26.682Z,1.60
2023-03-19T12:08:12.223Z,1.17
2023-03-19T12:10:57.400Z,1.15
2023-03-19T12:13:37.142Z,1.40
2023-03-19T12:16:20.289Z,1.30
2023-03-19T12:18:52.732Z,1.00
2023-03-19T12:21:28.017Z,0.80
2023-03-19T12:24:02.696Z,0.60
2023-03-19T12:26:29.212Z,0.68
2023-03-19T12:29:04.470Z,0.40
2023-03-19T12:32:00.500Z,0.40
2023-03-19T12:34:30.663Z,0.68
2023-03-19T12:37:04.222Z,0.60
2023-03-19T12:39:34.009Z,0.68
2023-03-19T12:42:02.017Z,0.80
2023-03-19T12:44:28.465Z,0.90
2023-03-19T12:47:08.917Z,0.80
2023-03-19T12:49:37.929Z,0.90
2023-03-19T12:52:11.587Z,0.85
2023-03-19T12:54:42.243Z,1.00
2023-03-19T12:57:12.577Z,0.82
2023-03-19T12:59:44.796Z,0.98
2023-03-19T13:02:11.168Z,0.90
2023-03-19T13:04:45.323Z,1.10
2023-03-19T13:07:18.125Z,0.90
2023-03-19T13:09:59.256Z,0.95
2023-03-19T13:12:30.875Z,1.17
2023-03-19T13:15:04.671Z,1.00
2023-03-19T13:17:36.977Z,1.30
2023-03-19T13:20:19.344Z,1.27
2023-03-19T13:22:50.624Z,1.25
2023-03-19T13:25:19.619Z,1.60
2023-03-19T13:27:54.057Z,1.55
2023-03-19T13:30:21.976Z,1.17
2023-03-19T13:32:54.427Z,1.70
2023-03-19T13:35:40.786Z,1.70
2023-03-19T13:38:15.517Z,1.73
2023-03-19T13:40:43.455Z,1.70
2023-03-19T13:43:28.055Z,1.58
2023-03-19T13:45:55.026Z,1.60
2023-03-19T13:48:35.315Z,2.28
2023-03-19T13:51:03.490Z,2.35
2023-03-19T13:53:34.630Z,1.77
2023-03-19T13:56:05.733Z,1.83
2023-03-19T13:58:54.270Z,1.73
2023-03-19T14:01:26.525Z,1.33
2023-03-19T14:04:02.023Z,1.70
2023-03-19T14:06:34.927Z,1.40
2023-03-19T14:09:01.646Z,1.27
2023-03-19T14:11:33.442Z,1.85
2023-03-19T14:14:07.145Z,1.15
2023-03-19T14:16:35.388Z,1.60
2023-03-19T14:19:02.886Z,1.42
2023-03-19T14:21:36.082Z,1.50
2023-03-19T14:24:52.225Z,2.13
2023-03-19T14:27:30.659Z,1.75
2023-03-19T14:30:00.478Z,1.50
2023-03-19T14:32:31.856Z,1.27
2023-03-19T14:34:58.344Z,1.60
2023-03-19T14:37:25.929Z,1.30
2023-03-19T14:40:01.570Z,1.27
2023-03-19T14:42:29.483Z,1.00
2023-03-19T14:45:14.876Z,1.10
2023-03-19T14:47:50.142Z,1.30
2023-03-19T14:50:25.462Z,1.38
2023-03-19T14:53:14.706Z,1.50
2023-03-19T14:55:41.857Z,1.55
2023-03-19T14:58:12.160Z,1.98
2023-03-19T15:00:40.742Z,1.60
2023-03-19T15:03:13.672Z,1.88
2023-03-19T15:05:40.001Z,1.50
2023-03-19T15:08:10.835Z,1.90
2023-03-19T15:10:43.516Z,1.70
2023-03-19T15:13:09.784Z,1.58
2023-03-19T15:15:54.902Z,1.77
2023-03-19T15:18:22.845Z,1.70
2023-03-19T15:20:56.235Z,1.83
2023-03-19T15:23:27.753Z,1.83
2023-03-19T15:28:25.560Z,1.20
2023-03-19T15:31:14.406Z,1.60
2023-03-19T15:33:46.415Z,1.20
2023-03-19T15:36:19.202Z,1.13
2023-03-19T15:38:57.382Z,1.30
2023-03-19T15:41:25.212Z,1.35
2023-03-19T15:43:52.020Z,1.25
2023-03-19T15:46:21.082Z,1.42
2023-03-19T15:48:53.030Z,1.30
2023-03-19T15:53:46.786Z,1.25
2023-03-19T15:56:14.008Z,1.17
2023-03-19T15:58:43.071Z,1.40
2023-03-19T16:01:09.919Z,1.30
2023-03-19T16:03:38.129Z,1.70
2023-03-19T16:06:12.787Z,1.40
2023-03-19T16:08:45.991Z,1.35
2023-03-19T16:11:13.297Z,1.10
2023-03-19T16:13:41.227Z,1.20
2023-03-19T16:16:15.018Z,1.50
2023-03-19T16:18:50.366Z,1.30
2023-03-19T16:21:18.611Z,1.08
2023-03-19T16:24:00.578Z,1.20
2023-03-19T16:26:37.652Z,1.10
2023-03-19T16:29:06.528Z,0.98
2023-03-19T16:31:41.706Z,0.80
2023-03-19T16:34:30.751Z,0.82
2023-03-19T16:36:58.516Z,0.98
2023-03-19T16:39:31.145Z,0.95
2023-03-19T16:42:12.943Z,1.35
2023-03-19T16:44:40.222Z,1.00
2023-03-19T16:47:13.531Z,1.10
2023-03-19T16:49:39.882Z,1.40
2023-03-19T16:52:06.586Z,1.40
2023-03-19T16:54:32.904Z,1.80
2023-03-19T16:56:59.279Z,1.60
2023-03-19T16:59:29.578Z,1.48
2023-03-19T17:01:56.363Z,1.10
2023-03-19T17:04:23.937Z,1.10
2023-03-19T17:06:50.662Z,1.10
2023-03-19T17:09:17.021Z,1.02
2023-03-19T17:11:43.781Z,1.10
2023-03-19T17:14:21.269Z,1.00
2023-03-19T17:16:50.661Z,0.80
2023-03-19T17:19:23.097Z,0.90
2023-03-19T17:21:51.144Z,0.90
2023-03-19T17:24:28.066Z,1.30
2023-03-19T17:26:56.208Z,0.80
2023-03-19T17:29:24.813Z,1.33
2023-03-19T17:31:52.214Z,1.40
2023-03-19T17:34:20.243Z,1.00
2023-03-19T17:36:50.983Z,0.90
2023-03-19T17:39:18.149Z,0.70
2023-03-19T17:41:44.782Z,0.60
2023-03-19T17:44:11.316Z,0.40
2023-03-19T17:46:39.818Z,0.40
2023-03-19T17:49:07.410Z,0.32
2023-03-19T17:51:33.740Z,0.40
2023-03-19T17:54:00.606Z,0.35
2023-03-19T17:56:27.027Z,0.40
2023-03-19T17:58:53.709Z,0.40
2023-03-19T18:01:22.315Z,0.40
2023-03-19T18:03:49.822Z,0.40
2023-03-19T18:06:17.907Z,0.30
2023-03-19T18:08:44.808Z,0.43
2023-03-19T18:11:11.699Z,0.40
2023-03-19T18:13:38.372Z,0.50
2023-03-19T18:16:05.914Z,1.05
2023-03-19T18:18:32.916Z,1.17
2023-03-19T18:21:00.639Z,1.35
2023-03-19T18:23:27.540Z,1.10
2023-03-19T18:25:54.057Z,1.10
2023-03-19T18:28:20.527Z,1.10
2023-03-19T18:30:46.908Z,1.00
2023-03-19T18:33:24.716Z,1.80
2023-03-19T18:35:53.586Z,1.65
2023-03-19T18:38:21.567Z,1.77
2023-03-19T18:40:48.893Z,1.75
2023-03-19T18:43:16.372Z,1.73
2023-03-19T18:45:43.628Z,1.83
2023-03-19T18:48:20.717Z,1.55
2023-03-19T18:50:48.422Z,2.50
2023-03-19T18:53:15.595Z,3.50
2023-03-19T18:55:42.134Z,4.03
2023-03-19T18:58:11.527Z,3.75
2023-03-19T19:00:38.062Z,3.15
2023-03-19T19:03:05.408Z,2.97
2023-03-19T19:05:32.863Z,2.60
2023-03-19T19:08:02.493Z,2.70
2023-03-19T19:10:38.277Z,3.00
2023-03-19T19:13:06.791Z,3.42
2023-03-19T19:15:34.349Z,2.30
2023-03-19T19:18:01.438Z,1.65
2023-03-19T19:20:28.881Z,1.50
2023-03-19T19:22:55.831Z,1.92
2023-03-19T19:25:26.177Z,1.70
2023-03-19T19:28:03.823Z,1.67
2023-03-19T19:30:30.163Z,0.80
2023-03-19T19:32:57.484Z,0.80
2023-03-19T19:35:25.521Z,0.60
2023-03-19T19:37:52.610Z,0.70
2023-03-19T19:40:20.924Z,0.77
2023-03-19T19:42:49.128Z,0.50
2023-03-19T19:45:26.228Z,0.45
2023-03-19T19:47:52.678Z,0.30
2023-03-19T19:50:19.920Z,0.40
2023-03-19T19:52:48.508Z,0.30
2023-03-19T19:55:15.623Z,0.38
2023-03-19T19:57:43.381Z,0.40
2023-03-19T20:00:23.991Z,1.02
2023-03-19T20:02:50.951Z,1.15
2023-03-19T20:05:23.337Z,0.93
2023-03-19T20:07:51.009Z,1.00
2023-03-19T20:10:18.303Z,1.00
2023-03-19T20:12:46.147Z,0.80
2023-03-19T20:15:16.552Z,1.10
2023-03-19T20:17:43.438Z,0.80
2023-03-19T20:20:13.983Z,0.80
2023-03-19T20:22:40.310Z,0.70
2023-03-19T20:25:07.653Z,0.63
2023-03-19T20:27:34.429Z,1.15
2023-03-19T20:30:01.186Z,1.20
2023-03-19T20:32:27.559Z,1.20
2023-03-19T20:34:54.064Z,0.90
2023-03-19T20:37:20.495Z,0.98
2023-03-19T20:39:46.851Z,0.85
2023-03-19T20:42:14.989Z,0.90
2023-03-19T20:44:42.282Z,0.60
2023-03-19T20:47:26.714Z,0.70
2023-03-19T20:49:53.465Z,1.10
2023-03-19T20:52:20.294Z,0.90
2023-03-19T20:54:46.871Z,0.90
2023-03-19T20:57:14.380Z,0.93
2023-03-19T20:59:43.427Z,0.80
2023-03-19T21:02:22.756Z,0.77
2023-03-19T21:04:49.207Z,0.60
2023-03-19T21:07:24.539Z,0.63
2023-03-19T21:09:50.886Z,0.47
2023-03-19T21:12:30.368Z,0.30
2023-03-19T21:14:57.312Z,0.30
2023-03-19T21:17:23.822Z,0.32
2023-03-19T21:19:50.252Z,0.43
2023-03-19T21:22:20.993Z,0.40
2023-03-19T21:24:47.997Z,0.30
2023-03-19T21:27:21.910Z,0.52
2023-03-19T21:29:48.655Z,0.60
2023-03-19T21:32:18.276Z,0.52
2023-03-19T21:34:45.975Z,0.90
2023-03-19T21:37:12.823Z,0.90
2023-03-19T21:39:39.199Z,0.65
2023-03-19T21:42:09.546Z,0.75
2023-03-19T21:44:36.740Z,0.70
2023-03-19T21:47:03.297Z,0.50
2023-03-19T21:49:30.541Z,0.60
2023-03-19T21:51:57.266Z,0.60
2023-03-19T21:54:23.895Z,0.50
2023-03-19T21:56:50.265Z,0.47
2023-03-19T21:59:18.983Z,0.50
2023-03-19T22:01:45.327Z,0.43
2023-03-19T22:04:11.714Z,0.40
2023-03-19T22:06:38.923Z,0.40
2023-03-19T22:09:05.448Z,0.32
2023-03-19T22:11:34.469Z,0.30
2023-03-19T22:14:04.122Z,0.20
2023-03-19T22:16:31.456Z,0.38
2023-03-19T22:18:58.154Z,0.30
2023-03-19T22:21:24.583Z,0.40
2023-03-19T22:23:51.295Z,0.40
2023-03-19T22:26:34.272Z,0.30
2023-03-19T22:29:02.293Z,0.35
2023-03-19T22:31:29.003Z,0.40
2023-03-19T22:33:55.683Z,0.40
2023-03-19T22:36:22.270Z,0.40
2023-03-19T22:38:49.361Z,0.60
2023-03-19T22:41:17.547Z,0.60
2023-03-19T22:43:44.743Z,0.57
2023-03-19T22:46:13.543Z,0.80
2023-03-19T22:48:40.141Z,0.85
2023-03-19T22:51:06.644Z,0.82
2023-03-19T22:53:34.429Z,0.57
2023-03-19T22:56:01.242Z,0.60
2023-03-19T22:58:28.267Z,0.50
2023-03-19T23:00:56.211Z,0.60
2023-03-19T23:03:25.246Z,0.75
2023-03-19T23:05:53.315Z,0.82
2023-03-19T23:08:20.003Z,1.00
2023-03-19T23:10:47.389Z,1.00
2023-03-19T23:13:14.746Z,0.80
2023-03-19T23:15:41.801Z,1.17
2023-03-19T23:18:19.260Z,1.27
2023-03-19T23:20:46.533Z,2.03
2023-03-19T23:23:16.660Z,1.38
2023-03-19T23:25:44.448Z,1.33
2023-03-19T23:28:20.254Z,1.42
2023-03-19T23:30:47.865Z,0.93
2023-03-19T23:33:14.856Z,1.00
2023-03-19T23:35:41.389Z,1.02
2023-03-19T23:38:08.566Z,0.80
2023-03-19T23:40:36.857Z,1.10
2023-03-19T23:43:03.841Z,1.20
2023-03-19T23:45:35.265Z,1.30
2023-03-19T23:48:06.662Z,1.77
2023-03-19T23:50:33.219Z,1.65
2023-03-19T23:53:00.172Z,1.95
2023-03-19T23:55:26.987Z,2.38
2023-03-19T23:57:53.414Z,2.67
